createdAt,value
2023-03-18T00:01:11.419Z,94462
2023-03-18T00:04:36.582Z,94465
2023-03-18T00:08:01.748Z,94468
2023-03-18T00:11:26.910Z,94469
2023-03-18T00:14:52.157Z,94472
2023-03-18T00:18:17.342Z,94470
2023-03-18T00:21:42.535Z,94482
2023-03-18T00:25:07.760Z,94480
2023-03-18T00:28:32.974Z,94479
2023-03-18T00:31:58.234Z,94478
2023-03-18T00:35:23.412Z,94484
2023-03-18T00:38:48.593Z,94490
2023-03-18T00:42:13.788Z,94480
2023-03-18T00:45:39.022Z,94485
2023-03-18T00:49:04.209Z,94486
2023-03-18T00:52:31.735Z,94490
2023-03-18T00:55:54.601Z,94487
2023-03-18T00:59:19.819Z,94489
2023-03-18T01:02:45.016Z,94491
2023-03-18T01:06:10.258Z,94492
2023-03-18T01:09:35.415Z,94492
2023-03-18T01:13:00.598Z,94487
2023-03-18T01:16:25.858Z,94483
2023-03-18T01:19:50.971Z,94482
2023-03-18T01:23:16.285Z,94479
2023-03-18T01:26:41.394Z,94485
2023-03-18T01:30:06.591Z,94478
2023-03-18T01:33:31.801Z,94478
2023-03-18T01:36:56.971Z,94480
2023-03-18T01:40:22.192Z,94487
2023-03-18T01:43:47.415Z,94485
2023-03-18T01:47:12.621Z,94487
2023-03-18T01:50:37.818Z,94486
2023-03-18T01:54:02.998Z,94488
2023-03-18T01:57:28.209Z,94486
2023-03-18T02:00:53.460Z,94491
2023-03-18T02:07:36.152Z,94503
2023-03-18T02:11:01.357Z,94509
2023-03-18T02:14:26.540Z,94503
2023-03-18T02:17:51.733Z,94498
2023-03-18T02:21:16.998Z,94503
2023-03-18T02:24:42.161Z,94496
2023-03-18T02:28:07.340Z,94506
2023-03-18T02:31:32.551Z,94513
2023-03-18T02:34:57.689Z,94517
2023-03-18T02:38:22.871Z,94516
2023-03-18T02:41:48.103Z,94518
2023-03-18T02:45:13.313Z,94520
2023-03-18T02:48:38.509Z,94515
2023-03-18T02:52:03.700Z,94514
2023-03-18T02:55:28.888Z,94524
2023-03-18T02:58:54.068Z,94533
2023-03-18T03:02:19.272Z,94539
2023-03-18T03:05:44.504Z,94547
2023-03-18T03:09:09.661Z,94545
2023-03-18T03:12:34.849Z,94546
2023-03-18T03:16:00.120Z,94543
2023-03-18T03:19:25.274Z,94550
2023-03-18T03:22:50.500Z,94554
2023-03-18T03:26:15.665Z,94552
2023-03-18T03:29:40.852Z,94552
2023-03-18T03:33:06.156Z,94555
2023-03-18T03:36:31.267Z,94549
2023-03-18T03:39:56.497Z,94549
2023-03-18T03:43:21.688Z,94553
2023-03-18T03:46:46.941Z,94556
2023-03-18T03:50:12.042Z,94555
2023-03-18T03:53:37.258Z,94557
2023-03-18T03:57:02.477Z,94557
2023-03-18T04:00:27.664Z,94552
2023-03-18T04:03:52.861Z,94552
2023-03-18T04:07:18.028Z,94558
2023-03-18T04:10:43.243Z,94562
2023-03-18T04:14:08.470Z,94557
2023-03-18T04:17:33.649Z,94561
2023-03-18T04:20:58.832Z,94570
2023-03-18T04:24:24.034Z,94565
2023-03-18T04:27:49.217Z,94566
2023-03-18T04:31:14.468Z,94569
2023-03-18T04:34:39.614Z,94563
2023-03-18T04:38:04.809Z,94572
2023-03-18T04:41:29.989Z,94572
2023-03-18T04:44:55.177Z,94567
2023-03-18T04:48:20.397Z,94570
2023-03-18T04:51:45.549Z,94572
2023-03-18T04:55:10.735Z,94568
2023-03-18T04:58:35.908Z,94566
2023-03-18T05:02:01.115Z,94569
2023-03-18T05:05:26.320Z,94569
2023-03-18T05:08:51.519Z,94568
2023-03-18T05:12:16.717Z,94572
2023-03-18T05:15:41.909Z,94572
2023-03-18T05:19:07.072Z,94559
2023-03-18T05:22:32.265Z,94560
2023-03-18T05:25:57.455Z,94565
2023-03-18T05:29:22.635Z,94559
2023-03-18T05:32:47.898Z,94557
2023-03-18T05:36:13.025Z,94560
2023-03-18T05:39:38.232Z,94558
2023-03-18T05:43:03.385Z,94557
2023-03-18T05:46:28.581Z,94564
2023-03-18T05:49:53.743Z,94568
2023-03-18T05:53:18.974Z,94555
2023-03-18T05:56:44.210Z,94560
2023-03-18T06:00:09.383Z,94565
2023-03-18T06:03:34.686Z,94563
2023-03-18T06:07:00.250Z,94568
2023-03-18T06:10:25.556Z,94568
2023-03-18T06:13:50.659Z,94570
2023-03-18T06:17:15.814Z,94565
2023-03-18T06:20:41.017Z,94566
2023-03-18T06:24:06.248Z,94565
2023-03-18T06:27:31.460Z,94569
2023-03-18T06:30:56.840Z,94570
2023-03-18T06:34:21.854Z,94569
2023-03-18T06:37:47.041Z,94573
2023-03-18T06:41:12.333Z,94575
2023-03-18T06:44:37.524Z,94573
2023-03-18T06:48:02.734Z,94573
2023-03-18T06:51:27.865Z,94572
2023-03-18T06:54:53.030Z,94577
2023-03-18T06:58:18.229Z,94582
2023-03-18T07:01:43.482Z,94579
2023-03-18T07:05:08.629Z,94577
2023-03-18T07:08:33.772Z,94584
2023-03-18T07:12:01.588Z,94591
2023-03-18T07:15:26.907Z,94591
2023-03-18T07:18:52.239Z,94593
2023-03-18T07:22:17.469Z,94600
2023-03-18T07:25:42.726Z,94608
2023-03-18T07:29:07.905Z,94604
2023-03-18T07:32:33.151Z,94606
2023-03-18T07:35:58.286Z,94618
2023-03-18T07:39:23.474Z,94619
2023-03-18T07:42:48.657Z,94624
2023-03-18T07:46:13.884Z,94620
2023-03-18T07:49:39.149Z,94615
2023-03-18T07:53:04.230Z,94616
2023-03-18T07:56:29.473Z,94615
2023-03-18T07:59:54.696Z,94617
2023-03-18T08:03:19.903Z,94621
2023-03-18T08:06:45.137Z,94615
2023-03-18T08:10:10.356Z,94621
2023-03-18T08:13:35.520Z,94622
2023-03-18T08:17:00.717Z,94627
2023-03-18T08:20:25.912Z,94630
2023-03-18T08:23:51.110Z,94623
2023-03-18T08:27:16.351Z,94629
2023-03-18T08:30:41.539Z,94632
2023-03-18T08:34:06.693Z,94631
2023-03-18T08:37:31.896Z,94632
2023-03-18T08:40:57.067Z,94636
2023-03-18T08:44:22.269Z,94638
2023-03-18T08:47:47.460Z,94638
2023-03-18T08:51:12.632Z,94639
2023-03-18T08:54:37.834Z,94632
2023-03-18T08:58:02.993Z,94633
2023-03-18T09:01:28.208Z,94636
2023-03-18T09:04:53.349Z,94649
2023-03-18T09:08:18.499Z,94650
2023-03-18T09:11:43.690Z,94648
2023-03-18T09:15:08.910Z,94652
2023-03-18T09:18:34.122Z,94650
2023-03-18T09:21:59.359Z,94652
2023-03-18T09:25:24.552Z,94651
2023-03-18T09:28:49.715Z,94653
2023-03-18T09:32:14.903Z,94655
2023-03-18T09:35:40.156Z,94659
2023-03-18T09:39:05.320Z,94662
2023-03-18T09:42:30.538Z,94659
2023-03-18T09:45:57.202Z,94658
2023-03-18T09:49:20.978Z,94656
2023-03-18T09:52:46.270Z,94652
2023-03-18T09:56:11.552Z,94656
2023-03-18T09:59:36.711Z,94652
2023-03-18T10:03:03.309Z,94657
2023-03-18T10:06:27.144Z,94656
2023-03-18T10:09:52.352Z,94651
2023-03-18T10:13:17.628Z,94654
2023-03-18T10:16:42.840Z,94649
2023-03-18T10:20:08.004Z,94652
2023-03-18T10:23:33.223Z,94654
2023-03-18T10:26:58.427Z,94656
2023-03-18T10:30:23.677Z,94663
2023-03-18T10:33:48.843Z,94658
2023-03-18T10:37:14.032Z,94659
2023-03-18T10:40:39.235Z,94660
2023-03-18T10:44:04.456Z,94666
2023-03-18T10:47:29.820Z,94665
2023-03-18T10:50:54.909Z,94671
2023-03-18T10:54:20.134Z,94662
2023-03-18T10:57:45.339Z,94658
2023-03-18T11:01:10.556Z,94664
2023-03-18T11:04:35.758Z,94662
2023-03-18T11:08:00.934Z,94656
2023-03-18T11:11:26.139Z,94653
2023-03-18T11:14:51.323Z,94654
2023-03-18T11:18:19.115Z,94656
2023-03-18T11:21:41.798Z,94656
2023-03-18T11:25:10.054Z,94644
2023-03-18T11:28:35.259Z,94639
2023-03-18T11:32:00.481Z,94634
2023-03-18T11:35:25.748Z,94643
2023-03-18T11:38:50.966Z,94641
2023-03-18T11:42:16.174Z,94631
2023-03-18T11:45:41.423Z,94633
2023-03-18T11:49:06.662Z,94627
2023-03-18T11:52:31.900Z,94631
2023-03-18T11:55:57.190Z,94628
2023-03-18T11:59:22.414Z,94632
2023-03-18T12:02:49.163Z,94633
2023-03-18T12:06:14.359Z,94632
2023-03-18T12:09:39.577Z,94627
2023-03-18T12:13:04.785Z,94631
2023-03-18T12:16:29.989Z,94628
2023-03-18T12:19:55.177Z,94627
2023-03-18T12:23:20.413Z,94626
2023-03-18T12:26:45.620Z,94627
2023-03-18T12:30:10.826Z,94624
2023-03-18T12:33:36.022Z,94631
2023-03-18T12:37:01.201Z,94623
2023-03-18T12:40:26.412Z,94623
2023-03-18T12:43:51.650Z,94619
2023-03-18T12:47:16.913Z,94617
2023-03-18T12:50:42.109Z,94614
2023-03-18T12:54:07.303Z,94616
2023-03-18T12:57:32.526Z,94613
2023-03-18T13:00:57.832Z,94612
2023-03-18T13:04:23.040Z,94603
2023-03-18T13:07:48.295Z,94600
2023-03-18T13:11:13.572Z,94601
2023-03-18T13:14:39.481Z,94601
2023-03-18T13:18:04.018Z,94594
2023-03-18T13:21:29.263Z,94599
2023-03-18T13:24:54.445Z,94596
2023-03-18T13:28:19.671Z,94595
2023-03-18T13:31:44.965Z,94595
2023-03-18T13:35:12.718Z,94598
2023-03-18T13:38:35.509Z,94596
2023-03-18T13:42:00.729Z,94586
2023-03-18T13:45:25.996Z,94590
2023-03-18T13:48:51.293Z,94595
2023-03-18T13:52:16.533Z,94590
2023-03-18T13:55:41.773Z,94586
2023-03-18T13:59:06.993Z,94581
2023-03-18T14:02:32.258Z,94587
2023-03-18T14:05:57.562Z,94587
2023-03-18T14:09:22.801Z,94582
2023-03-18T14:12:48.306Z,94584
2023-03-18T14:16:13.340Z,94581
2023-03-18T14:19:38.652Z,94588
2023-03-18T14:23:03.847Z,94584
2023-03-18T14:26:29.077Z,94581
2023-03-18T14:29:54.324Z,94581
2023-03-18T14:33:19.555Z,94584
2023-03-18T14:36:44.807Z,94578
2023-03-18T14:40:10.056Z,94576
2023-03-18T14:43:35.276Z,94573
2023-03-18T14:47:00.595Z,94572
2023-03-18T14:50:25.706Z,94575
2023-03-18T14:53:50.947Z,94574
2023-03-18T14:57:16.173Z,94577
2023-03-18T15:00:41.409Z,94576
2023-03-18T15:04:06.735Z,94569
2023-03-18T15:43:05.632Z,94557
2023-03-18T15:46:30.887Z,94569
2023-03-18T15:49:56.098Z,94570
2023-03-18T15:53:21.314Z,94564
2023-03-18T15:56:46.660Z,94569
2023-03-18T16:00:12.028Z,94577
2023-03-18T16:03:37.284Z,94572
2023-03-18T16:07:02.580Z,94575
2023-03-18T16:10:27.817Z,94575
2023-03-18T16:13:53.097Z,94576
2023-03-18T16:17:21.127Z,94573
2023-03-18T16:20:43.628Z,94578
2023-03-18T16:24:08.862Z,94579
2023-03-18T16:27:34.080Z,94577
2023-03-18T16:30:59.338Z,94584
2023-03-18T16:34:24.594Z,94597
2023-03-18T16:37:49.807Z,94591
2023-03-18T16:41:15.210Z,94599
2023-03-18T16:44:40.433Z,94603
2023-03-18T16:48:06.391Z,94611
2023-03-18T16:51:31.760Z,94613
2023-03-18T16:54:56.985Z,94611
2023-03-18T16:58:22.232Z,94611
2023-03-18T17:01:47.453Z,94611
2023-03-18T17:05:12.631Z,94612
2023-03-18T17:08:37.908Z,94620
2023-03-18T17:12:03.098Z,94613
2023-03-18T17:15:28.409Z,94610
2023-03-18T17:18:53.651Z,94611
2023-03-18T17:22:18.876Z,94613
2023-03-18T17:25:44.229Z,94616
2023-03-18T17:29:09.306Z,94615
2023-03-18T17:32:34.513Z,94623
2023-03-18T17:35:59.778Z,94621
2023-03-18T17:39:24.925Z,94619
2023-03-18T17:42:50.163Z,94627
2023-03-18T17:46:15.448Z,94634
2023-03-18T17:49:40.596Z,94636
2023-03-18T17:53:05.783Z,94628
2023-03-18T17:56:31.011Z,94629
2023-03-18T17:59:56.254Z,94630
2023-03-18T18:03:21.450Z,94629
2023-03-18T18:06:48.070Z,94632
2023-03-18T18:10:11.889Z,94627
2023-03-18T18:13:37.102Z,94632
2023-03-18T18:17:02.355Z,94636
2023-03-18T18:20:27.531Z,94634
2023-03-18T18:23:52.769Z,94635
2023-03-18T18:27:17.981Z,94636
2023-03-18T18:30:43.221Z,94634
2023-03-18T18:34:08.451Z,94637
2023-03-18T18:37:33.650Z,94642
2023-03-18T18:40:58.857Z,94648
2023-03-18T18:44:24.077Z,94646
2023-03-18T18:47:49.301Z,94654
2023-03-18T18:51:14.536Z,94654
2023-03-18T18:54:39.722Z,94658
2023-03-18T18:58:04.948Z,94654
2023-03-18T19:01:30.189Z,94654
2023-03-18T19:04:55.387Z,94655
2023-03-18T19:08:21.374Z,94652
2023-03-18T19:11:46.568Z,94658
2023-03-18T19:15:14.119Z,94653
2023-03-18T19:18:37.027Z,94649
2023-03-18T19:22:02.215Z,94659
2023-03-18T19:25:27.438Z,94658
2023-03-18T19:28:58.754Z,94654
2023-03-18T19:32:17.838Z,94649
2023-03-18T19:35:43.088Z,94647
2023-03-18T19:39:08.246Z,94650
2023-03-18T19:42:33.508Z,94656
2023-03-18T19:45:58.792Z,94654
2023-03-18T19:49:23.886Z,94662
2023-03-18T19:52:49.093Z,94658
2023-03-18T19:56:14.280Z,94647
2023-03-18T19:59:40.024Z,94649
2023-03-18T20:03:04.750Z,94648
2023-03-18T20:06:29.968Z,94647
2023-03-18T20:09:55.175Z,94647
2023-03-18T20:13:20.420Z,94649
2023-03-18T20:16:45.820Z,94647
2023-03-18T20:20:10.869Z,94654
2023-03-18T20:23:36.078Z,94659
2023-03-18T20:27:01.277Z,94663
2023-03-18T20:30:26.497Z,94663
2023-03-18T20:33:51.713Z,94662
2023-03-18T20:37:16.921Z,94666
2023-03-18T20:40:42.121Z,94673
2023-03-18T20:44:07.352Z,94669
2023-03-18T20:47:32.519Z,94667
2023-03-18T20:50:57.783Z,94665
2023-03-18T20:54:23.041Z,94670
2023-03-18T20:57:48.221Z,94676
2023-03-18T21:01:13.443Z,94677
2023-03-18T21:04:38.629Z,94682
2023-03-18T21:08:03.889Z,94686
2023-03-18T21:11:29.064Z,94692
2023-03-18T21:14:54.263Z,94692
2023-03-18T21:18:19.461Z,94697
2023-03-18T21:21:44.685Z,94695
2023-03-18T21:25:09.898Z,94695
2023-03-18T21:28:35.122Z,94694
2023-03-18T21:32:00.309Z,94688
2023-03-18T21:35:25.537Z,94688
2023-03-18T21:38:50.752Z,94691
2023-03-18T21:42:15.979Z,94690
2023-03-18T21:45:41.199Z,94687
2023-03-18T21:49:06.384Z,94691
2023-03-18T21:52:31.636Z,94695
2023-03-18T21:55:56.872Z,94695
2023-03-18T21:59:22.151Z,94692
2023-03-18T22:02:47.417Z,94688
2023-03-18T22:06:12.569Z,94689
2023-03-18T22:09:37.796Z,94679
2023-03-18T22:13:03.022Z,94683
2023-03-18T22:16:28.375Z,94690
2023-03-18T22:19:53.482Z,94687
2023-03-18T22:23:18.682Z,94684
2023-03-18T22:26:43.939Z,94678
2023-03-18T22:30:09.139Z,94689
2023-03-18T22:33:34.390Z,94693
2023-03-18T22:36:59.577Z,94691
2023-03-18T22:40:24.774Z,94689
2023-03-18T22:43:49.979Z,94687
2023-03-18T22:47:15.209Z,94682
2023-03-18T22:50:40.463Z,94679
2023-03-18T22:54:05.635Z,94684
2023-03-18T22:57:30.862Z,94688
2023-03-18T23:00:56.068Z,94685
2023-03-18T23:04:21.297Z,94686
2023-03-18T23:07:46.558Z,94686
2023-03-18T23:11:11.741Z,94684
2023-03-18T23:14:36.962Z,94688
2023-03-18T23:18:02.196Z,94692
2023-03-18T23:21:27.421Z,94692
2023-03-18T23:24:52.660Z,94687
2023-03-18T23:28:17.875Z,94682
2023-03-18T23:31:43.142Z,94678
2023-03-18T23:35:08.301Z,94685
2023-03-18T23:38:33.496Z,94686
2023-03-18T23:41:58.770Z,94683
2023-03-18T23:45:23.972Z,94683
2023-03-18T23:48:49.120Z,94680
2023-03-18T23:52:14.357Z,94677
2023-03-18T23:55:39.693Z,94679
2023-03-18T23:59:04.897Z,94678
